Terminal Aerodrome Forecast
Issued by NWS Cleveland, OH

Home | Current Version | Previous Version | Text Only | Print | Product List | Glossary On
Versions: 1 2 3 4 5 6 7 8 9 10 11 12 13 14 15 16 17
252
FTUS41 KCLE 162123 AAA
TAFERI
TAF AMD
KERI 162123Z 1621/1718 VRB03KT 5SM -RA SCT025 OVC050
     FM170100 14008KT 5SM -RA BR SCT008 OVC015
     FM171000 16010KT 2SM -RA OVC008=

USA.gov is the U.S. government's official web portal to all federal, state and local government web resources and services.